sensor_id;sensor_type;location;lat;lon;timestamp;P1;durP1;ratioP1;P2;durP2;ratioP2
23179;SDS011;11758;45.756;11.432;2022-09-09T00:00:18;4.30;;;2.38;;
23179;SDS011;11758;45.756;11.432;2022-09-09T00:03:01;4.47;;;2.58;;
23179;SDS011;11758;45.756;11.432;2022-09-09T00:08:45;3.90;;;2.70;;
23179;SDS011;11758;45.756;11.432;2022-09-09T00:11:20;2.88;;;2.70;;
23179;SDS011;11758;45.756;11.432;2022-09-09T00:13:48;3.85;;;3.13;;
23179;SDS011;11758;45.756;11.432;2022-09-09T00:18:51;4.65;;;2.90;;
23179;SDS011;11758;45.756;11.432;2022-09-09T00:21:18;8.27;;;3.13;;
23179;SDS011;11758;45.756;11.432;2022-09-09T00:23:50;2.80;;;2.60;;
23179;SDS011;11758;45.756;11.432;2022-09-09T00:31:28;4.55;;;3.13;;
23179;SDS011;11758;45.756;11.432;2022-09-09T00:33:55;8.73;;;2.85;;
23179;SDS011;11758;45.756;11.432;2022-09-09T00:36:24;9.20;;;2.95;;
23179;SDS011;11758;45.756;11.432;2022-09-09T00:38:57;7.57;;;2.90;;
23179;SDS011;11758;45.756;11.432;2022-09-09T00:44:07;4.10;;;2.72;;
23179;SDS011;11758;45.756;11.432;2022-09-09T00:52:02;5.80;;;2.80;;
23179;SDS011;11758;45.756;11.432;2022-09-09T00:57:04;4.82;;;2.80;;
23179;SDS011;11758;45.756;11.432;2022-09-09T00:59:38;10.00;;;2.70;;
23179;SDS011;11758;45.756;11.432;2022-09-09T01:02:12;4.82;;;2.70;;
23179;SDS011;11758;45.756;11.432;2022-09-09T01:04:41;7.60;;;2.67;;
23179;SDS011;11758;45.756;11.432;2022-09-09T01:07:13;4.13;;;2.92;;
23179;SDS011;11758;45.756;11.432;2022-09-09T01:09:55;3.20;;;2.78;;
23179;SDS011;11758;45.756;11.432;2022-09-09T01:12:24;3.60;;;3.22;;
23179;SDS011;11758;45.756;11.432;2022-09-09T01:14:53;4.15;;;2.90;;
23179;SDS011;11758;45.756;11.432;2022-09-09T01:17:30;3.75;;;2.60;;
23179;SDS011;11758;45.756;11.432;2022-09-09T01:20:14;9.25;;;2.75;;
23179;SDS011;11758;45.756;11.432;2022-09-09T01:28:27;8.13;;;3.03;;
23179;SDS011;11758;45.756;11.432;2022-09-09T01:30:53;4.28;;;2.70;;
23179;SDS011;11758;45.756;11.432;2022-09-09T01:33:20;3.13;;;2.83;;
23179;SDS011;11758;45.756;11.432;2022-09-09T01:38:21;5.65;;;3.20;;
23179;SDS011;11758;45.756;11.432;2022-09-09T01:40:48;5.30;;;3.05;;
23179;SDS011;11758;45.756;11.432;2022-09-09T01:43:17;4.15;;;3.15;;
23179;SDS011;11758;45.756;11.432;2022-09-09T01:45:43;5.13;;;2.97;;
23179;SDS011;11758;45.756;11.432;2022-09-09T01:48:10;8.85;;;3.00;;
23179;SDS011;11758;45.756;11.432;2022-09-09T01:50:36;10.07;;;2.67;;
23179;SDS011;11758;45.756;11.432;2022-09-09T01:53:02;4.63;;;2.65;;
23179;SDS011;11758;45.756;11.432;2022-09-09T01:55:32;3.28;;;2.63;;
23179;SDS011;11758;45.756;11.432;2022-09-09T02:00:46;3.13;;;2.92;;
23179;SDS011;11758;45.756;11.432;2022-09-09T02:03:21;6.88;;;3.30;;
23179;SDS011;11758;45.756;11.432;2022-09-09T02:06:24;6.00;;;3.33;;
23179;SDS011;11758;45.756;11.432;2022-09-09T02:08:42;4.68;;;2.97;;
23179;SDS011;11758;45.756;11.432;2022-09-09T02:11:13;4.80;;;2.90;;
23179;SDS011;11758;45.756;11.432;2022-09-09T02:13:39;3.00;;;2.78;;
23179;SDS011;11758;45.756;11.432;2022-09-09T02:16:07;3.30;;;3.00;;
23179;SDS011;11758;45.756;11.432;2022-09-09T02:21:14;6.85;;;3.97;;
23179;SDS011;11758;45.756;11.432;2022-09-09T02:23:42;7.10;;;3.60;;
23179;SDS011;11758;45.756;11.432;2022-09-09T02:26:09;18.30;;;3.80;;
23179;SDS011;11758;45.756;11.432;2022-09-09T02:28:36;5.72;;;3.55;;
23179;SDS011;11758;45.756;11.432;2022-09-09T02:31:03;4.60;;;3.08;;
23179;SDS011;11758;45.756;11.432;2022-09-09T02:33:31;3.97;;;3.35;;
23179;SDS011;11758;45.756;11.432;2022-09-09T02:35:59;6.38;;;2.92;;
23179;SDS011;11758;45.756;11.432;2022-09-09T02:38:29;3.42;;;2.60;;
23179;SDS011;11758;45.756;11.432;2022-09-09T02:40:57;7.82;;;3.10;;
23179;SDS011;11758;45.756;11.432;2022-09-09T02:43:23;3.45;;;3.00;;
23179;SDS011;11758;45.756;11.432;2022-09-09T02:49:08;3.95;;;3.00;;
23179;SDS011;11758;45.756;11.432;2022-09-09T02:51:16;6.72;;;3.78;;
23179;SDS011;11758;45.756;11.432;2022-09-09T02:56:45;4.97;;;3.10;;
23179;SDS011;11758;45.756;11.432;2022-09-09T02:59:15;5.35;;;2.80;;
23179;SDS011;11758;45.756;11.432;2022-09-09T03:01:43;5.40;;;3.13;;
23179;SDS011;11758;45.756;11.432;2022-09-09T03:04:10;4.45;;;3.05;;
23179;SDS011;11758;45.756;11.432;2022-09-09T03:06:36;9.77;;;2.78;;
23179;SDS011;11758;45.756;11.432;2022-09-09T03:09:02;3.00;;;2.80;;
23179;SDS011;11758;45.756;11.432;2022-09-09T03:11:28;4.00;;;2.90;;
23179;SDS011;11758;45.756;11.432;2022-09-09T03:13:55;3.17;;;2.95;;
23179;SDS011;11758;45.756;11.432;2022-09-09T03:16:21;5.45;;;2.67;;
23179;SDS011;11758;45.756;11.432;2022-09-09T03:18:48;5.45;;;3.00;;
23179;SDS011;11758;45.756;11.432;2022-09-09T03:21:14;6.95;;;3.30;;
23179;SDS011;11758;45.756;11.432;2022-09-09T03:23:40;3.00;;;2.72;;
23179;SDS011;11758;45.756;11.432;2022-09-09T03:26:07;7.72;;;3.33;;
23179;SDS011;11758;45.756;11.432;2022-09-09T03:28:33;4.90;;;2.90;;
23179;SDS011;11758;45.756;11.432;2022-09-09T03:31:01;5.18;;;3.25;;
23179;SDS011;11758;45.756;11.432;2022-09-09T03:33:27;12.02;;;3.15;;
23179;SDS011;11758;45.756;11.432;2022-09-09T03:35:54;6.20;;;3.10;;
23179;SDS011;11758;45.756;11.432;2022-09-09T03:38:24;3.33;;;2.78;;
23179;SDS011;11758;45.756;11.432;2022-09-09T03:40:51;3.97;;;2.95;;
23179;SDS011;11758;45.756;11.432;2022-09-09T03:43:20;5.10;;;3.25;;
23179;SDS011;11758;45.756;11.432;2022-09-09T03:45:46;8.05;;;2.92;;
23179;SDS011;11758;45.756;11.432;2022-09-09T03:48:13;3.35;;;3.05;;
23179;SDS011;11758;45.756;11.432;2022-09-09T03:50:43;6.97;;;3.28;;
23179;SDS011;11758;45.756;11.432;2022-09-09T03:53:09;3.40;;;3.05;;
23179;SDS011;11758;45.756;11.432;2022-09-09T03:55:35;3.47;;;3.17;;
23179;SDS011;11758;45.756;11.432;2022-09-09T03:58:01;5.35;;;2.97;;
23179;SDS011;11758;45.756;11.432;2022-09-09T04:00:28;4.32;;;2.75;;
23179;SDS011;11758;45.756;11.432;2022-09-09T04:02:55;4.40;;;3.38;;
23179;SDS011;11758;45.756;11.432;2022-09-09T04:05:22;5.30;;;3.10;;
23179;SDS011;11758;45.756;11.432;2022-09-09T04:07:49;4.35;;;2.78;;
23179;SDS011;11758;45.756;11.432;2022-09-09T04:10:16;4.50;;;2.97;;
23179;SDS011;11758;45.756;11.432;2022-09-09T04:12:42;5.75;;;3.42;;
23179;SDS011;11758;45.756;11.432;2022-09-09T04:15:09;7.35;;;3.03;;
23179;SDS011;11758;45.756;11.432;2022-09-09T04:17:35;3.15;;;2.90;;
23179;SDS011;11758;45.756;11.432;2022-09-09T04:20:02;3.38;;;2.78;;
23179;SDS011;11758;45.756;11.432;2022-09-09T04:22:28;6.18;;;2.60;;
23179;SDS011;11758;45.756;11.432;2022-09-09T04:24:54;3.08;;;2.70;;
23179;SDS011;11758;45.756;11.432;2022-09-09T04:27:20;3.60;;;2.92;;
23179;SDS011;11758;45.756;11.432;2022-09-09T04:29:46;4.50;;;3.15;;
23179;SDS011;11758;45.756;11.432;2022-09-09T04:32:12;3.42;;;3.13;;
23179;SDS011;11758;45.756;11.432;2022-09-09T04:34:38;5.78;;;3.10;;
23179;SDS011;11758;45.756;11.432;2022-09-09T04:37:06;3.90;;;3.03;;
23179;SDS011;11758;45.756;11.432;2022-09-09T04:39:32;5.85;;;3.00;;
23179;SDS011;11758;45.756;11.432;2022-09-09T04:41:58;2.88;;;2.63;;
23179;SDS011;11758;45.756;11.432;2022-09-09T04:44:24;3.42;;;2.83;;
23179;SDS011;11758;45.756;11.432;2022-09-09T04:46:50;3.58;;;2.95;;
23179;SDS011;11758;45.756;11.432;2022-09-09T04:49:17;5.18;;;3.33;;
23179;SDS011;11758;45.756;11.432;2022-09-09T04:51:43;4.93;;;2.85;;
23179;SDS011;11758;45.756;11.432;2022-09-09T04:54:12;8.52;;;2.90;;
23179;SDS011;11758;45.756;11.432;2022-09-09T04:56:38;8.35;;;2.80;;
23179;SDS011;11758;45.756;11.432;2022-09-09T04:59:04;3.15;;;2.92;;
23179;SDS011;11758;45.756;11.432;2022-09-09T05:01:30;2.80;;;2.60;;
23179;SDS011;11758;45.756;11.432;2022-09-09T05:03:57;6.03;;;3.08;;
23179;SDS011;11758;45.756;11.432;2022-09-09T05:06:23;5.20;;;2.83;;
23179;SDS011;11758;45.756;11.432;2022-09-09T05:08:50;3.88;;;2.85;;
23179;SDS011;11758;45.756;11.432;2022-09-09T05:11:21;4.18;;;3.08;;
23179;SDS011;11758;45.756;11.432;2022-09-09T05:13:49;6.32;;;2.97;;
23179;SDS011;11758;45.756;11.432;2022-09-09T05:16:16;5.80;;;3.05;;
23179;SDS011;11758;45.756;11.432;2022-09-09T05:18:42;3.92;;;3.28;;
23179;SDS011;11758;45.756;11.432;2022-09-09T05:21:09;7.30;;;3.30;;
23179;SDS011;11758;45.756;11.432;2022-09-09T05:23:35;7.50;;;3.30;;
23179;SDS011;11758;45.756;11.432;2022-09-09T05:26:02;4.93;;;3.00;;
23179;SDS011;11758;45.756;11.432;2022-09-09T05:28:28;7.95;;;3.22;;
23179;SDS011;11758;45.756;11.432;2022-09-09T05:30:59;6.97;;;3.35;;
23179;SDS011;11758;45.756;11.432;2022-09-09T05:33:26;3.25;;;2.70;;
23179;SDS011;11758;45.756;11.432;2022-09-09T05:35:58;5.10;;;3.00;;
23179;SDS011;11758;45.756;11.432;2022-09-09T05:38:25;4.05;;;2.80;;
23179;SDS011;11758;45.756;11.432;2022-09-09T05:40:52;7.03;;;3.10;;
23179;SDS011;11758;45.756;11.432;2022-09-09T05:43:18;7.10;;;2.92;;
23179;SDS011;11758;45.756;11.432;2022-09-09T05:45:45;3.47;;;2.72;;
23179;SDS011;11758;45.756;11.432;2022-09-09T05:48:12;4.07;;;3.65;;
23179;SDS011;11758;45.756;11.432;2022-09-09T05:50:40;4.45;;;3.20;;
23179;SDS011;11758;45.756;11.432;2022-09-09T05:53:06;6.28;;;3.08;;
23179;SDS011;11758;45.756;11.432;2022-09-09T05:55:32;10.45;;;3.00;;
23179;SDS011;11758;45.756;11.432;2022-09-09T05:57:58;6.38;;;3.33;;
23179;SDS011;11758;45.756;11.432;2022-09-09T06:00:26;6.47;;;3.00;;
23179;SDS011;11758;45.756;11.432;2022-09-09T06:02:52;6.65;;;3.10;;
23179;SDS011;11758;45.756;11.432;2022-09-09T06:05:18;5.93;;;3.20;;
23179;SDS011;11758;45.756;11.432;2022-09-09T06:07:45;6.05;;;3.30;;
23179;SDS011;11758;45.756;11.432;2022-09-09T06:10:11;4.78;;;2.90;;
23179;SDS011;11758;45.756;11.432;2022-09-09T06:12:39;6.32;;;3.10;;
23179;SDS011;11758;45.756;11.432;2022-09-09T06:15:05;5.47;;;4.00;;
23179;SDS011;11758;45.756;11.432;2022-09-09T06:17:32;9.25;;;3.75;;
23179;SDS011;11758;45.756;11.432;2022-09-09T06:19:58;7.60;;;5.18;;
23179;SDS011;11758;45.756;11.432;2022-09-09T06:22:24;6.85;;;4.00;;
23179;SDS011;11758;45.756;11.432;2022-09-09T06:24:51;5.80;;;3.35;;
23179;SDS011;11758;45.756;11.432;2022-09-09T06:27:18;3.10;;;2.80;;
23179;SDS011;11758;45.756;11.432;2022-09-09T06:29:44;4.95;;;2.70;;
23179;SDS011;11758;45.756;11.432;2022-09-09T06:32:10;6.05;;;3.25;;
23179;SDS011;11758;45.756;11.432;2022-09-09T06:34:37;3.05;;;2.80;;
23179;SDS011;11758;45.756;11.432;2022-09-09T06:37:05;2.85;;;2.65;;
23179;SDS011;11758;45.756;11.432;2022-09-09T06:39:31;4.97;;;3.17;;
23179;SDS011;11758;45.756;11.432;2022-09-09T06:41:57;5.40;;;4.13;;
23179;SDS011;11758;45.756;11.432;2022-09-09T06:44:24;4.90;;;3.45;;
23179;SDS011;11758;45.756;11.432;2022-09-09T06:46:58;10.95;;;3.00;;
23179;SDS011;11758;45.756;11.432;2022-09-09T06:49:56;8.25;;;3.17;;
23179;SDS011;11758;45.756;11.432;2022-09-09T06:52:23;6.97;;;3.20;;
23179;SDS011;11758;45.756;11.432;2022-09-09T06:54:49;5.55;;;3.38;;
23179;SDS011;11758;45.756;11.432;2022-09-09T06:57:16;6.60;;;3.17;;
23179;SDS011;11758;45.756;11.432;2022-09-09T06:59:42;6.47;;;3.60;;
23179;SDS011;11758;45.756;11.432;2022-09-09T07:02:08;7.55;;;3.70;;
23179;SDS011;11758;45.756;11.432;2022-09-09T07:04:34;5.63;;;2.97;;
23179;SDS011;11758;45.756;11.432;2022-09-09T07:07:00;6.80;;;3.40;;
23179;SDS011;11758;45.756;11.432;2022-09-09T07:09:26;5.25;;;3.55;;
23179;SDS011;11758;45.756;11.432;2022-09-09T07:11:53;3.30;;;3.00;;
23179;SDS011;11758;45.756;11.432;2022-09-09T07:14:21;3.65;;;3.10;;
23179;SDS011;11758;45.756;11.432;2022-09-09T07:16:47;5.25;;;3.17;;
23179;SDS011;11758;45.756;11.432;2022-09-09T07:19:13;5.97;;;3.35;;
23179;SDS011;11758;45.756;11.432;2022-09-09T07:21:40;4.47;;;2.78;;
23179;SDS011;11758;45.756;11.432;2022-09-09T07:24:06;3.33;;;3.03;;
23179;SDS011;11758;45.756;11.432;2022-09-09T07:29:22;4.78;;;3.40;;
23179;SDS011;11758;45.756;11.432;2022-09-09T07:31:48;9.02;;;4.13;;
23179;SDS011;11758;45.756;11.432;2022-09-09T07:34:15;6.55;;;3.67;;
23179;SDS011;11758;45.756;11.432;2022-09-09T07:36:41;5.18;;;3.35;;
23179;SDS011;11758;45.756;11.432;2022-09-09T07:39:08;7.60;;;3.38;;
23179;SDS011;11758;45.756;11.432;2022-09-09T07:41:39;3.13;;;2.60;;
23179;SDS011;11758;45.756;11.432;2022-09-09T07:44:06;3.70;;;2.85;;
23179;SDS011;11758;45.756;11.432;2022-09-09T07:46:32;4.13;;;3.28;;
23179;SDS011;11758;45.756;11.432;2022-09-09T07:48:59;9.43;;;6.13;;
23179;SDS011;11758;45.756;11.432;2022-09-09T07:51:27;4.75;;;3.10;;
23179;SDS011;11758;45.756;11.432;2022-09-09T07:53:54;5.78;;;2.85;;
23179;SDS011;11758;45.756;11.432;2022-09-09T07:56:22;5.95;;;3.00;;
23179;SDS011;11758;45.756;11.432;2022-09-09T07:58:49;6.93;;;2.92;;
23179;SDS011;11758;45.756;11.432;2022-09-09T08:01:20;7.22;;;3.50;;
23179;SDS011;11758;45.756;11.432;2022-09-09T08:03:46;4.15;;;3.45;;
23179;SDS011;11758;45.756;11.432;2022-09-09T08:06:13;6.20;;;3.30;;
23179;SDS011;11758;45.756;11.432;2022-09-09T08:08:43;3.50;;;3.20;;
23179;SDS011;11758;45.756;11.432;2022-09-09T08:11:14;3.50;;;2.90;;
23179;SDS011;11758;45.756;11.432;2022-09-09T08:13:48;5.38;;;3.40;;
23179;SDS011;11758;45.756;11.432;2022-09-09T08:16:16;4.35;;;3.30;;
23179;SDS011;11758;45.756;11.432;2022-09-09T08:18:42;11.70;;;3.40;;
23179;SDS011;11758;45.756;11.432;2022-09-09T08:21:11;6.38;;;3.20;;
23179;SDS011;11758;45.756;11.432;2022-09-09T08:23:40;8.32;;;3.92;;
23179;SDS011;11758;45.756;11.432;2022-09-09T08:26:16;3.45;;;2.90;;
23179;SDS011;11758;45.756;11.432;2022-09-09T08:28:43;4.90;;;2.90;;
23179;SDS011;11758;45.756;11.432;2022-09-09T08:31:10;7.45;;;3.50;;
23179;SDS011;11758;45.756;11.432;2022-09-09T08:33:36;4.25;;;3.15;;
23179;SDS011;11758;45.756;11.432;2022-09-09T08:36:04;5.45;;;3.63;;
23179;SDS011;11758;45.756;11.432;2022-09-09T08:38:30;10.25;;;3.95;;
23179;SDS011;11758;45.756;11.432;2022-09-09T08:40:58;5.43;;;3.33;;
23179;SDS011;11758;45.756;11.432;2022-09-09T08:43:29;4.05;;;3.17;;
23179;SDS011;11758;45.756;11.432;2022-09-09T08:46:07;8.38;;;3.58;;
23179;SDS011;11758;45.756;11.432;2022-09-09T08:51:21;5.32;;;3.63;;
23179;SDS011;11758;45.756;11.432;2022-09-09T08:53:50;6.72;;;3.10;;
23179;SDS011;11758;45.756;11.432;2022-09-09T08:56:18;4.60;;;3.60;;
23179;SDS011;11758;45.756;11.432;2022-09-09T09:01:24;7.03;;;3.35;;
23179;SDS011;11758;45.756;11.432;2022-09-09T09:09:03;10.25;;;3.60;;
23179;SDS011;11758;45.756;11.432;2022-09-09T09:11:38;9.38;;;4.10;;
23179;SDS011;11758;45.756;11.432;2022-09-09T09:14:09;7.55;;;3.65;;
23179;SDS011;11758;45.756;11.432;2022-09-09T09:19:15;4.53;;;3.05;;
23179;SDS011;11758;45.756;11.432;2022-09-09T09:22:00;5.60;;;3.30;;
23179;SDS011;11758;45.756;11.432;2022-09-09T09:24:34;5.68;;;2.90;;
23179;SDS011;11758;45.756;11.432;2022-09-09T09:27:07;6.43;;;2.80;;
23179;SDS011;11758;45.756;11.432;2022-09-09T09:29:38;5.47;;;3.63;;
23179;SDS011;11758;45.756;11.432;2022-09-09T09:32:05;2.90;;;2.70;;
23179;SDS011;11758;45.756;11.432;2022-09-09T09:34:33;4.55;;;2.50;;
23179;SDS011;11758;45.756;11.432;2022-09-09T09:36:59;2.67;;;2.40;;
23179;SDS011;11758;45.756;11.432;2022-09-09T09:39:30;2.70;;;2.50;;
23179;SDS011;11758;45.756;11.432;2022-09-09T09:42:11;3.22;;;2.92;;
23179;SDS011;11758;45.756;11.432;2022-09-09T09:44:40;6.15;;;2.20;;
23179;SDS011;11758;45.756;11.432;2022-09-09T09:47:17;5.13;;;3.20;;
23179;SDS011;11758;45.756;11.432;2022-09-09T09:49:53;5.22;;;2.58;;
23179;SDS011;11758;45.756;11.432;2022-09-09T09:52:24;2.78;;;2.58;;
23179;SDS011;11758;45.756;11.432;2022-09-09T09:54:50;4.25;;;3.08;;
23179;SDS011;11758;45.756;11.432;2022-09-09T09:57:18;6.50;;;3.08;;
23179;SDS011;11758;45.756;11.432;2022-09-09T09:59:45;5.78;;;3.00;;
23179;SDS011;11758;45.756;11.432;2022-09-09T10:02:24;7.78;;;3.15;;
23179;SDS011;11758;45.756;11.432;2022-09-09T10:05:04;6.90;;;2.80;;
23179;SDS011;11758;45.756;11.432;2022-09-09T10:07:30;5.10;;;2.65;;
23179;SDS011;11758;45.756;11.432;2022-09-09T10:09:58;5.70;;;2.95;;
23179;SDS011;11758;45.756;11.432;2022-09-09T10:12:35;3.88;;;2.83;;
23179;SDS011;11758;45.756;11.432;2022-09-09T10:18:04;5.85;;;3.00;;
23179;SDS011;11758;45.756;11.432;2022-09-09T10:20:36;5.20;;;2.97;;
23179;SDS011;11758;45.756;11.432;2022-09-09T10:23:18;6.40;;;2.60;;
23179;SDS011;11758;45.756;11.432;2022-09-09T10:36:12;5.57;;;3.08;;
23179;SDS011;11758;45.756;11.432;2022-09-09T10:38:40;3.25;;;2.70;;
23179;SDS011;11758;45.756;11.432;2022-09-09T10:41:11;6.38;;;2.97;;
23179;SDS011;11758;45.756;11.432;2022-09-09T10:48:58;5.57;;;2.70;;
23179;SDS011;11758;45.756;11.432;2022-09-09T10:51:44;11.05;;;2.85;;
23179;SDS011;11758;45.756;11.432;2022-09-09T10:56:49;4.32;;;2.40;;
23179;SDS011;11758;45.756;11.432;2022-09-09T10:59:19;6.93;;;2.50;;
23179;SDS011;11758;45.756;11.432;2022-09-09T11:04:17;4.15;;;2.58;;
23179;SDS011;11758;45.756;11.432;2022-09-09T11:06:47;6.07;;;2.50;;
23179;SDS011;11758;45.756;11.432;2022-09-09T11:09:17;8.15;;;2.70;;
23179;SDS011;11758;45.756;11.432;2022-09-09T11:11:49;3.53;;;2.28;;
23179;SDS011;11758;45.756;11.432;2022-09-09T11:14:33;2.88;;;2.30;;
23179;SDS011;11758;45.756;11.432;2022-09-09T11:17:18;12.57;;;3.00;;
23179;SDS011;11758;45.756;11.432;2022-09-09T11:19:46;5.15;;;2.40;;
23179;SDS011;11758;45.756;11.432;2022-09-09T11:24:46;2.80;;;1.50;;
23179;SDS011;11758;45.756;11.432;2022-09-09T11:27:19;5.72;;;2.00;;
23179;SDS011;11758;45.756;11.432;2022-09-09T11:30:04;6.13;;;2.20;;
23179;SDS011;11758;45.756;11.432;2022-09-09T11:37:32;8.05;;;1.30;;
23179;SDS011;11758;45.756;11.432;2022-09-09T11:42:38;2.55;;;1.33;;
23179;SDS011;11758;45.756;11.432;2022-09-09T11:45:08;1.48;;;1.38;;
23179;SDS011;11758;45.756;11.432;2022-09-09T11:47:36;2.63;;;1.63;;
23179;SDS011;11758;45.756;11.432;2022-09-09T11:55:40;1.30;;;1.20;;
23179;SDS011;11758;45.756;11.432;2022-09-09T12:00:34;2.60;;;2.40;;
23179;SDS011;11758;45.756;11.432;2022-09-09T12:03:30;2.05;;;1.00;;
23179;SDS011;11758;45.756;11.432;2022-09-09T12:05:52;2.50;;;1.17;;
23179;SDS011;11758;45.756;11.432;2022-09-09T12:08:21;1.23;;;1.13;;
23179;SDS011;11758;45.756;11.432;2022-09-09T12:10:54;1.25;;;1.10;;
23179;SDS011;11758;45.756;11.432;2022-09-09T12:13:22;2.03;;;1.00;;
23179;SDS011;11758;45.756;11.432;2022-09-09T12:15:55;1.27;;;1.20;;
23179;SDS011;11758;45.756;11.432;2022-09-09T12:18:23;4.80;;;1.48;;
23179;SDS011;11758;45.756;11.432;2022-09-09T12:21:04;1.50;;;1.40;;
23179;SDS011;11758;45.756;11.432;2022-09-09T12:23:37;5.05;;;1.40;;
23179;SDS011;11758;45.756;11.432;2022-09-09T12:34:08;2.08;;;1.98;;
23179;SDS011;11758;45.756;11.432;2022-09-09T12:36:36;1.35;;;1.00;;
23179;SDS011;11758;45.756;11.432;2022-09-09T12:39:49;4.55;;;1.63;;
23179;SDS011;11758;45.756;11.432;2022-09-09T12:41:53;2.00;;;1.50;;
23179;SDS011;11758;45.756;11.432;2022-09-09T12:44:23;1.65;;;1.50;;
23179;SDS011;11758;45.756;11.432;2022-09-09T12:46:49;1.63;;;1.30;;
23179;SDS011;11758;45.756;11.432;2022-09-09T12:51:52;1.38;;;1.13;;
23179;SDS011;11758;45.756;11.432;2022-09-09T12:54:19;1.10;;;1.10;;
23179;SDS011;11758;45.756;11.432;2022-09-09T12:56:46;4.35;;;1.15;;
23179;SDS011;11758;45.756;11.432;2022-09-09T12:59:25;2.25;;;1.50;;
23179;SDS011;11758;45.756;11.432;2022-09-09T13:01:56;2.08;;;1.30;;
23179;SDS011;11758;45.756;11.432;2022-09-09T13:04:26;1.88;;;1.77;;
23179;SDS011;11758;45.756;11.432;2022-09-09T13:07:05;2.00;;;1.90;;
23179;SDS011;11758;45.756;11.432;2022-09-09T13:09:32;3.92;;;2.42;;
23179;SDS011;11758;45.756;11.432;2022-09-09T13:11:58;2.08;;;1.80;;
23179;SDS011;11758;45.756;11.432;2022-09-09T13:14:27;3.03;;;1.98;;
23179;SDS011;11758;45.756;11.432;2022-09-09T13:16:57;1.85;;;1.85;;
23179;SDS011;11758;45.756;11.432;2022-09-09T13:19:24;1.70;;;1.70;;
23179;SDS011;11758;45.756;11.432;2022-09-09T13:21:52;1.90;;;1.80;;
23179;SDS011;11758;45.756;11.432;2022-09-09T13:24:32;1.70;;;1.60;;
23179;SDS011;11758;45.756;11.432;2022-09-09T13:27:00;4.38;;;1.85;;
23179;SDS011;11758;45.756;11.432;2022-09-09T13:29:27;1.88;;;1.77;;
23179;SDS011;11758;45.756;11.432;2022-09-09T13:31:53;1.88;;;1.70;;
23179;SDS011;11758;45.756;11.432;2022-09-09T13:34:50;3.50;;;1.80;;
23179;SDS011;11758;45.756;11.432;2022-09-09T13:37:20;2.38;;;2.17;;
23179;SDS011;11758;45.756;11.432;2022-09-09T13:39:50;4.30;;;1.60;;
23179;SDS011;11758;45.756;11.432;2022-09-09T13:42:24;3.55;;;1.58;;
23179;SDS011;11758;45.756;11.432;2022-09-09T13:44:51;1.80;;;1.70;;
23179;SDS011;11758;45.756;11.432;2022-09-09T13:47:18;2.25;;;1.92;;
23179;SDS011;11758;45.756;11.432;2022-09-09T13:49:45;2.00;;;1.90;;
23179;SDS011;11758;45.756;11.432;2022-09-09T13:52:13;3.25;;;2.00;;
23179;SDS011;11758;45.756;11.432;2022-09-09T13:54:40;5.97;;;2.10;;
23179;SDS011;11758;45.756;11.432;2022-09-09T13:57:18;1.40;;;1.40;;
23179;SDS011;11758;45.756;11.432;2022-09-09T13:59:45;8.20;;;1.60;;
23179;SDS011;11758;45.756;11.432;2022-09-09T14:02:11;1.48;;;1.38;;
23179;SDS011;11758;45.756;11.432;2022-09-09T14:04:37;2.10;;;1.85;;
23179;SDS011;11758;45.756;11.432;2022-09-09T14:07:07;1.80;;;1.70;;
23179;SDS011;11758;45.756;11.432;2022-09-09T14:09:35;4.70;;;1.45;;
23179;SDS011;11758;45.756;11.432;2022-09-09T14:12:01;2.65;;;1.48;;
23179;SDS011;11758;45.756;11.432;2022-09-09T14:14:27;2.00;;;1.35;;
23179;SDS011;11758;45.756;11.432;2022-09-09T14:16:53;1.85;;;1.50;;
23179;SDS011;11758;45.756;11.432;2022-09-09T14:19:19;1.70;;;1.60;;
23179;SDS011;11758;45.756;11.432;2022-09-09T14:21:45;1.85;;;1.70;;
23179;SDS011;11758;45.756;11.432;2022-09-09T14:24:11;3.53;;;1.42;;
23179;SDS011;11758;45.756;11.432;2022-09-09T14:26:37;1.50;;;1.40;;
23179;SDS011;11758;45.756;11.432;2022-09-09T14:29:04;4.25;;;1.63;;
23179;SDS011;11758;45.756;11.432;2022-09-09T14:31:30;5.13;;;1.65;;
23179;SDS011;11758;45.756;11.432;2022-09-09T14:33:56;1.80;;;1.70;;
23179;SDS011;11758;45.756;11.432;2022-09-09T14:36:22;2.40;;;2.28;;
23179;SDS011;11758;45.756;11.432;2022-09-09T14:38:49;5.68;;;4.93;;
23179;SDS011;11758;45.756;11.432;2022-09-09T14:41:16;2.20;;;2.00;;
23179;SDS011;11758;45.756;11.432;2022-09-09T14:43:43;1.70;;;1.60;;
23179;SDS011;11758;45.756;11.432;2022-09-09T14:46:10;1.48;;;1.40;;
23179;SDS011;11758;45.756;11.432;2022-09-09T14:48:36;4.55;;;1.73;;
23179;SDS011;11758;45.756;11.432;2022-09-09T14:51:13;2.33;;;1.52;;
23179;SDS011;11758;45.756;11.432;2022-09-09T14:53:40;1.80;;;1.50;;
23179;SDS011;11758;45.756;11.432;2022-09-09T14:56:14;1.77;;;1.65;;
23179;SDS011;11758;45.756;11.432;2022-09-09T14:58:40;1.95;;;1.80;;
23179;SDS011;11758;45.756;11.432;2022-09-09T15:01:17;1.58;;;1.52;;
23179;SDS011;11758;45.756;11.432;2022-09-09T15:03:48;1.33;;;1.30;;
23179;SDS011;11758;45.756;11.432;2022-09-09T15:06:14;1.65;;;1.60;;
23179;SDS011;11758;45.756;11.432;2022-09-09T15:08:41;2.35;;;1.75;;
23179;SDS011;11758;45.756;11.432;2022-09-09T15:11:08;1.60;;;1.50;;
23179;SDS011;11758;45.756;11.432;2022-09-09T15:13:38;2.65;;;1.70;;
23179;SDS011;11758;45.756;11.432;2022-09-09T15:18:31;1.90;;;1.80;;
23179;SDS011;11758;45.756;11.432;2022-09-09T15:20:58;2.00;;;1.83;;
23179;SDS011;11758;45.756;11.432;2022-09-09T15:23:25;2.55;;;1.65;;
23179;SDS011;11758;45.756;11.432;2022-09-09T15:25:52;2.55;;;1.42;;
23179;SDS011;11758;45.756;11.432;2022-09-09T15:28:18;3.63;;;1.65;;
23179;SDS011;11758;45.756;11.432;2022-09-09T15:30:47;3.92;;;1.80;;
23179;SDS011;11758;45.756;11.432;2022-09-09T15:33:13;3.33;;;1.55;;
23179;SDS011;11758;45.756;11.432;2022-09-09T15:35:40;3.28;;;1.50;;
23179;SDS011;11758;45.756;11.432;2022-09-09T15:38:06;7.85;;;1.67;;
23179;SDS011;11758;45.756;11.432;2022-09-09T15:40:32;5.97;;;1.65;;
23179;SDS011;11758;45.756;11.432;2022-09-09T15:42:58;3.38;;;1.75;;
23179;SDS011;11758;45.756;11.432;2022-09-09T15:45:25;4.60;;;1.50;;
23179;SDS011;11758;45.756;11.432;2022-09-09T15:47:51;5.05;;;1.70;;
23179;SDS011;11758;45.756;11.432;2022-09-09T15:50:18;1.67;;;1.65;;
23179;SDS011;11758;45.756;11.432;2022-09-09T15:52:44;4.25;;;1.60;;
23179;SDS011;11758;45.756;11.432;2022-09-09T15:55:10;3.05;;;1.73;;
23179;SDS011;11758;45.756;11.432;2022-09-09T15:57:36;2.13;;;1.70;;
23179;SDS011;11758;45.756;11.432;2022-09-09T16:00:05;4.10;;;1.80;;
23179;SDS011;11758;45.756;11.432;2022-09-09T16:02:32;2.60;;;1.60;;
23179;SDS011;11758;45.756;11.432;2022-09-09T16:04:58;4.60;;;1.88;;
23179;SDS011;11758;45.756;11.432;2022-09-09T16:07:26;3.50;;;1.80;;
23179;SDS011;11758;45.756;11.432;2022-09-09T16:09:52;6.18;;;1.80;;
23179;SDS011;11758;45.756;11.432;2022-09-09T16:12:18;5.20;;;2.05;;
23179;SDS011;11758;45.756;11.432;2022-09-09T16:14:44;2.13;;;1.70;;
23179;SDS011;11758;45.756;11.432;2022-09-09T16:17:10;1.83;;;1.50;;
23179;SDS011;11758;45.756;11.432;2022-09-09T16:19:36;5.93;;;1.90;;
23179;SDS011;11758;45.756;11.432;2022-09-09T16:22:03;3.88;;;2.10;;
23179;SDS011;11758;45.756;11.432;2022-09-09T16:24:31;4.15;;;2.00;;
23179;SDS011;11758;45.756;11.432;2022-09-09T16:26:57;3.90;;;1.65;;
23179;SDS011;11758;45.756;11.432;2022-09-09T16:29:23;6.35;;;1.90;;
23179;SDS011;11758;45.756;11.432;2022-09-09T16:31:52;4.88;;;2.00;;
23179;SDS011;11758;45.756;11.432;2022-09-09T16:34:19;3.58;;;1.70;;